Time;durP1;ratioP1;P1;durP2;ratioP2;P2;SDS_P1;SDS_P2;PMS_P1;PMS_P2;Temp;Humidity;BMP_temperature;BMP_pressure;BME280_temperature;BME280_humidity;BME280_pressure;Samples;Min_cycle;Max_cycle;Signal;HPM_P1;HPM_P2
2022/06/02 00:01:36;;;;;;;5.82;4.70;;;;;;;13.21;67.92;101214.25;5047405;28;20048;-75
2022/06/02 00:04:12;;;;;;;7.03;5.28;;;;;;;13.31;67.49;101220.69;5045023;28;20086;-76
2022/06/02 00:06:47;;;;;;;6.32;4.90;;;;;;;13.16;68.66;101211.84;5044863;28;20546;-75
2022/06/02 00:09:29;;;;;;;8.63;5.38;;;;;;;13.49;66.63;101212.63;5043450;28;20508;-75
2022/06/02 00:12:04;;;;;;;7.25;5.18;;;;;;;13.44;67.06;101214.69;5054852;28;20084;-76
2022/06/02 00:14:40;;;;;;;6.93;4.95;;;;;;;13.42;66.70;101208.63;5046616;28;20053;-75
2022/06/02 00:17:15;;;;;;;6.40;4.90;;;;;;;13.33;67.26;101219.69;5043255;28;20049;-75
2022/06/02 00:19:48;;;;;;;6.97;4.78;;;;;;;12.95;67.92;101223.53;5042920;28;20044;-76
2022/06/02 00:22:20;;;;;;;6.75;4.75;;;;;;;12.81;68.56;101220.78;5054922;28;20500;-75
2022/06/02 00:24:54;;;;;;;7.15;4.90;;;;;;;12.21;70.84;101225.66;5044205;28;20052;-75
2022/06/02 00:27:27;;;;;;;7.70;5.13;;;;;;;12.14;71.24;101221.66;5045985;28;20106;-76
2022/06/02 00:30:04;;;;;;;7.97;5.22;;;;;;;11.91;71.67;101228.06;5052141;28;20044;-75
2022/06/02 00:32:46;;;;;;;7.65;5.13;;;;;;;11.62;73.08;101224.19;5042510;28;20483;-75
2022/06/02 00:35:34;;;;;;;7.47;6.03;;;;;;;11.41;74.33;101232.25;5043307;28;20453;-75
2022/06/02 00:38:06;;;;;;;8.40;5.80;;;;;;;11.32;75.01;101235.28;5043300;28;21852;-75
2022/06/02 00:40:35;;;;;;;7.10;5.65;;;;;;;11.60;73.42;101238.34;5055059;28;20056;-75
2022/06/02 00:43:30;;;;;;;8.35;5.78;;;;;;;11.34;73.55;101236.94;5050553;28;20666;-75
2022/06/02 00:46:05;;;;;;;7.75;5.38;;;;;;;11.39;73.51;101239.31;5052910;28;20045;-75
2022/06/02 00:48:46;;;;;;;10.70;6.35;;;;;;;11.09;75.01;101241.59;5054406;28;20048;-75
2022/06/02 00:51:19;;;;;;;11.07;6.10;;;;;;;11.74;72.61;101245.56;5063151;28;20043;-74
2022/06/02 00:59:52;;;;;;;7.20;5.60;;;;;;;12.03;71.20;101261.63;5064306;28;20051;-75
2022/06/02 01:02:19;;;;;;;8.52;5.80;;;;;;;11.92;71.36;101258.66;5061204;28;20110;-75
2022/06/02 01:04:45;;;;;;;7.50;5.65;;;;;;;12.06;70.67;101257.97;5049016;28;20041;-75
2022/06/02 01:07:26;;;;;;;10.25;5.60;;;;;;;12.21;70.84;101262.47;5045068;28;20090;-75
2022/06/02 01:10:06;;;;;;;9.25;6.05;;;;;;;12.51;69.38;101274.06;5061561;28;20097;-75
2022/06/02 01:13:01;;;;;;;9.20;6.18;;;;;;;12.38;69.37;101266.91;5051581;28;20074;-75
2022/06/02 01:15:46;;;;;;;10.23;5.47;;;;;;;12.19;70.33;101275.69;5064587;28;20113;-75
2022/06/02 01:18:22;;;;;;;6.88;5.18;;;;;;;12.19;70.05;101265.16;5052890;28;20394;-76
2022/06/02 01:21:03;;;;;;;7.93;5.40;;;;;;;12.45;69.36;101269.09;5043430;28;20494;-76
2022/06/02 01:24:06;;;;;;;7.55;4.97;;;;;;;12.35;69.03;101273.16;5063707;28;20516;-76
2022/06/02 01:26:47;;;;;;;7.72;5.22;;;;;;;12.07;70.44;101268.44;5064041;28;20110;-76
2022/06/02 01:29:32;;;;;;;6.63;4.90;;;;;;;12.64;68.24;101276.91;5054799;28;20501;-76
2022/06/02 01:32:04;;;;;;;6.85;4.85;;;;;;;12.67;68.08;101276.78;5058193;28;20044;-75
2022/06/02 01:34:48;;;;;;;6.93;4.97;;;;;;;12.99;67.06;101285.59;5064885;28;20048;-75
2022/06/02 01:37:22;;;;;;;6.03;4.82;;;;;;;12.72;67.79;101290.53;5067634;28;20101;-75
2022/06/02 01:40:09;;;;;;;7.10;5.18;;;;;;;12.66;67.54;101294.34;5065861;28;20467;-75
2022/06/02 01:42:49;;;;;;;7.32;5.00;;;;;;;12.28;69.13;101290.16;5068826;28;20478;-75
2022/06/02 01:45:32;;;;;;;7.30;5.05;;;;;;;12.01;69.80;101294.16;5067986;28;20048;-75
2022/06/02 01:48:08;;;;;;;7.13;5.32;;;;;;;11.90;70.49;101289.41;5064920;28;20074;-75
2022/06/02 01:50:46;;;;;;;7.75;5.25;;;;;;;11.94;69.92;101298.00;5065728;28;20074;-75
2022/06/02 01:53:23;;;;;;;6.68;5.32;;;;;;;11.48;71.00;101294.06;5064210;28;20049;-75
2022/06/02 01:56:12;;;;;;;6.55;4.78;;;;;;;11.64;70.43;101298.50;5067704;28;20053;-75
2022/06/02 01:58:57;;;;;;;8.73;4.97;;;;;;;11.45;70.75;101299.44;5066627;28;20048;-75
2022/06/02 02:01:36;;;;;;;6.85;5.05;;;;;;;11.96;70.15;101299.63;5059467;28;20398;-76
2022/06/02 02:04:16;;;;;;;7.35;5.72;;;;;;;11.92;70.30;101307.75;5063292;28;20051;-76
2022/06/02 02:06:49;;;;;;;7.20;5.57;;;;;;;12.12;69.97;101310.28;5066543;28;20055;-75
2022/06/02 02:09:24;;;;;;;7.47;5.65;;;;;;;12.34;69.43;101308.25;5063759;28;20087;-75
2022/06/02 02:11:53;;;;;;;7.43;5.43;;;;;;;11.95;70.74;101318.97;5067199;28;20052;-75
2022/06/02 02:14:45;;;;;;;7.40;5.55;;;;;;;12.05;70.19;101319.34;5067191;28;20463;-75
2022/06/02 02:17:32;;;;;;;9.13;5.70;;;;;;;11.98;70.48;101318.81;5066873;28;20052;-75
2022/06/02 02:20:07;;;;;;;8.68;5.72;;;;;;;12.19;69.52;101315.13;5058813;28;20469;-75
2022/06/02 02:22:42;;;;;;;8.15;5.85;;;;;;;12.14;69.97;101322.41;5060118;28;20048;-76
2022/06/02 02:25:14;;;;;;;9.95;5.82;;;;;;;11.99;70.37;101319.66;5050389;28;20126;-75
2022/06/02 02:28:03;;;;;;;;;;;;;;;11.85;71.00;101324.72;5057338;28;20591;-77
2022/06/02 02:30:37;;;;;;;10.65;6.03;;;;;;;11.91;71.05;101330.53;5051432;28;20456;-75
2022/06/02 02:33:15;;;;;;;8.45;5.75;;;;;;;11.78;71.38;101339.09;5056316;28;20452;-76
2022/06/02 02:35:51;;;;;;;8.30;6.25;;;;;;;11.74;71.51;101335.75;5055186;28;20044;-77
2022/06/02 02:38:26;;;;;;;9.23;6.00;;;;;;;11.58;71.94;101335.56;5067250;28;20451;-75
2022/06/02 02:40:58;;;;;;;10.65;6.30;;;;;;;11.98;70.23;101338.97;5052348;28;20664;-77
2022/06/02 02:43:26;;;;;;;;;;;;;;;12.04;69.95;101336.06;5066966;28;20040;-77
2022/06/02 02:46:00;;;;;;;9.00;6.18;;;;;;;11.95;70.05;101339.97;5055134;28;19924;-72
2022/06/02 02:48:37;;;;;;;9.95;6.13;;;;;;;11.64;71.55;101345.78;5056410;28;20040;-72
2022/06/02 02:51:13;;;;;;;11.45;6.28;;;;;;;11.60;71.73;101333.72;5065475;28;20090;-72
2022/06/02 02:53:45;;;;;;;9.65;6.50;;;;;;;11.53;71.84;101344.59;5066295;28;20142;-73
2022/06/02 02:56:17;;;;;;;10.48;6.30;;;;;;;11.88;70.76;101349.09;5065960;28;20036;-73
2022/06/02 02:58:49;;;;;;;9.43;6.00;;;;;;;12.15;69.91;101347.78;5067121;28;20052;-72
2022/06/02 03:01:24;;;;;;;12.57;6.38;;;;;;;11.84;70.36;101350.16;5064122;28;20037;-71
2022/06/02 03:04:09;;;;;;;9.73;6.65;;;;;;;11.81;70.77;101344.19;5049070;28;20533;-72
2022/06/02 03:06:40;;;;;;;9.30;6.18;;;;;;;11.85;70.26;101349.22;5058429;28;20094;-72
2022/06/02 03:09:12;;;;;;;9.52;7.05;;;;;;;12.29;69.09;101339.19;5064627;28;20052;-71
2022/06/02 03:11:55;;;;;;;9.75;6.93;;;;;;;12.41;68.88;101349.13;5064651;28;20098;-72
2022/06/02 03:14:34;;;;;;;9.73;6.95;;;;;;;11.96;70.50;101356.59;5058772;28;20051;-71
2022/06/02 03:17:11;;;;;;;10.18;6.40;;;;;;;12.15;70.22;101365.31;5065334;28;20131;-71
2022/06/02 03:19:46;;;;;;;10.65;7.60;;;;;;;11.85;70.89;101362.38;5057954;28;20044;-72
2022/06/02 03:22:30;;;;;;;10.38;7.28;;;;;;;11.64;71.58;101368.59;5058174;28;20094;-72
2022/06/02 03:25:07;;;;;;;10.65;6.65;;;;;;;12.09;69.83;101362.97;5055575;28;20626;-71
2022/06/02 03:27:44;;;;;;;11.35;7.50;;;;;;;12.13;69.79;101367.16;5064157;28;20041;-71
2022/06/02 03:30:18;;;;;;;10.48;7.38;;;;;;;11.97;70.48;101371.47;5062456;28;20102;-72
2022/06/02 03:33:01;;;;;;;11.23;7.22;;;;;;;11.98;70.64;101374.00;5063864;28;20093;-72
2022/06/02 03:35:32;;;;;;;14.70;7.75;;;;;;;12.05;70.46;101371.91;5044990;28;20048;-72
2022/06/02 03:38:11;;;;;;;13.93;8.15;;;;;;;12.02;70.50;101382.59;5057551;28;20053;-72
2022/06/02 03:40:59;;;;;;;12.50;7.88;;;;;;;11.99;70.95;101378.34;5070395;28;20093;-72
2022/06/02 03:43:34;;;;;;;10.27;7.78;;;;;;;12.18;70.42;101379.16;5082068;28;20127;-71
2022/06/02 03:46:16;;;;;;;12.02;7.85;;;;;;;12.24;69.67;101385.88;5086179;28;20446;-72
2022/06/02 03:49:00;;;;;;;11.55;8.23;;;;;;;12.05;70.52;101382.44;5084628;28;20052;-72
2022/06/02 03:51:35;;;;;;;13.85;8.45;;;;;;;12.06;70.78;101381.50;5077380;28;20462;-72
2022/06/02 03:54:32;;;;;;;11.25;7.78;;;;;;;11.89;71.56;101395.47;5055435;28;20040;-72
2022/06/02 03:57:24;;;;;;;11.02;7.78;;;;;;;12.31;69.86;101383.81;5044210;28;20053;-72
2022/06/02 04:00:07;;;;;;;9.95;7.65;;;;;;;12.11;70.63;101387.41;5043156;28;20057;-72
2022/06/02 04:02:42;;;;;;;12.20;7.60;;;;;;;12.21;70.38;101391.31;5047421;28;20501;-72
2022/06/02 04:05:26;;;;;;;12.82;8.38;;;;;;;12.47;69.75;101395.28;5063434;28;20099;-72
2022/06/02 04:08:08;;;;;;;13.40;8.38;;;;;;;12.32;70.31;101406.56;5063317;28;20052;-72
2022/06/02 04:10:42;;;;;;;11.95;8.00;;;;;;;12.28;70.57;101400.59;5049627;28;20471;-72
2022/06/02 04:13:38;;;;;;;12.32;8.18;;;;;;;12.49;69.94;101403.97;5045594;28;20118;-72
2022/06/02 04:16:35;;;;;;;14.48;8.55;;;;;;;12.51;70.34;101407.38;5056922;28;20127;-72
2022/06/02 04:22:21;;;;;;;13.93;8.88;;;;;;;12.44;70.77;101416.50;5050456;28;20182;-73
2022/06/02 04:25:00;;;;;;;16.35;9.52;;;;;;;12.62;70.74;101405.06;5055017;28;20040;-73
2022/06/02 04:27:38;;;;;;;13.77;9.45;;;;;;;12.63;70.58;101423.44;5065699;28;21540;-73
2022/06/02 04:30:15;;;;;;;12.43;8.38;;;;;;;12.72;70.45;101421.25;5047047;28;20036;-73
2022/06/02 04:32:49;;;;;;;30.75;9.02;;;;;;;12.65;70.95;101424.19;5054658;28;20060;-73
2022/06/02 04:35:24;;;;;;;16.75;9.15;;;;;;;12.46;71.52;101425.16;5064809;28;20040;-73
2022/06/02 04:38:00;;;;;;;14.40;9.75;;;;;;;13.07;69.40;101430.88;5064890;28;20049;-73
2022/06/02 04:40:44;;;;;;;15.50;9.30;;;;;;;13.04;70.02;101434.47;5063355;28;20106;-73
2022/06/02 04:43:20;;;;;;;12.73;8.82;;;;;;;13.06;70.28;101440.53;5062098;28;20048;-73
2022/06/02 04:45:59;;;;;;;14.65;9.30;;;;;;;13.33;69.67;101442.72;5049265;28;20101;-73
2022/06/02 04:48:35;;;;;;;15.30;10.20;;;;;;;13.23;69.91;101447.59;5048588;28;20548;-73
2022/06/02 04:51:13;;;;;;;15.95;10.40;;;;;;;13.24;69.64;101445.81;5054341;28;20052;-73
2022/06/02 04:53:49;;;;;;;15.20;9.27;;;;;;;13.67;68.70;101444.44;5056218;28;20467;-73
2022/06/02 04:56:22;;;;;;;13.73;9.63;;;;;;;13.61;68.67;101459.63;5056798;28;20459;-73
2022/06/02 04:58:59;;;;;;;15.43;9.82;;;;;;;13.87;68.63;101457.38;5058472;28;20444;-73
2022/06/02 05:01:38;;;;;;;13.43;9.80;;;;;;;13.84;68.80;101457.56;5045953;28;20038;-73
2022/06/02 05:04:17;;;;;;;14.80;10.38;;;;;;;13.97;68.51;101472.63;5064024;28;20045;-73
2022/06/02 05:06:50;;;;;;;13.25;10.00;;;;;;;14.52;65.92;101470.44;5043679;28;20041;-73
2022/06/02 05:09:23;;;;;;;14.30;9.70;;;;;;;14.28;66.90;101481.50;5042580;28;20041;-73
2022/06/02 05:12:01;;;;;;;15.23;10.63;;;;;;;14.26;66.31;101481.59;5044266;28;20041;-73
2022/06/02 05:14:33;;;;;;;12.85;9.60;;;;;;;14.16;67.35;101480.38;5043853;28;20098;-73
2022/06/02 05:17:36;;;;;;;12.27;9.75;;;;;;;14.24;67.29;101488.72;5054054;28;20110;-73
2022/06/02 05:20:32;;;;;;;14.55;9.70;;;;;;;14.29;66.21;101486.72;5047506;28;20045;-72
2022/06/02 05:23:26;;;;;;;13.18;9.57;;;;;;;14.19;67.36;101498.66;5052890;28;20041;-72
2022/06/02 05:26:22;;;;;;;15.07;9.38;;;;;;;14.51;66.75;101495.16;5045404;28;20110;-69
2022/06/02 05:29:09;;;;;;;14.13;8.95;;;;;;;15.00;65.00;101495.00;5042676;28;20041;-69
2022/06/02 05:32:03;;;;;;;13.40;8.95;;;;;;;15.03;64.69;101503.59;5046799;28;20479;-69
2022/06/02 05:35:12;;;;;;;11.70;8.43;;;;;;;15.65;62.23;101506.97;5062601;28;20288;-69
2022/06/02 05:38:00;;;;;;;12.63;8.57;;;;;;;15.43;63.00;101504.75;5034553;28;20040;-69
2022/06/02 05:40:33;;;;;;;10.30;8.15;;;;;;;15.57;61.97;101512.72;5060336;28;20214;-69
2022/06/02 05:43:17;;;;;;;12.73;8.32;;;;;;;16.13;60.94;101500.47;5061067;28;20493;-69
2022/06/02 05:45:57;;;;;;;10.60;8.35;;;;;;;16.89;59.29;101504.34;5045280;28;20182;-69
2022/06/02 05:48:37;;;;;;;9.85;7.28;;;;;;;16.65;58.89;101507.75;5046272;28;20095;-69
2022/06/02 05:51:15;;;;;;;10.13;7.30;;;;;;;16.92;59.48;101506.78;5051443;28;20049;-69
2022/06/02 05:53:54;;;;;;;9.70;7.63;;;;;;;17.42;56.25;101521.97;5052118;28;20106;-69
2022/06/02 05:56:34;;;;;;;9.73;6.45;;;;;;;17.70;54.70;101515.66;5063321;28;20045;-69
2022/06/02 05:59:35;;;;;;;9.20;6.93;;;;;;;17.37;56.49;101523.22;5062671;28;20037;-69
2022/06/02 06:02:24;;;;;;;9.43;6.43;;;;;;;17.62;55.61;101522.47;5030546;28;20089;-69
2022/06/02 06:05:14;;;;;;;10.77;6.88;;;;;;;17.88;55.25;101529.47;5048838;28;20484;-69
2022/06/02 06:07:59;;;;;;;11.55;6.18;;;;;;;18.48;52.96;101524.25;5062612;28;20044;-68
2022/06/02 06:10:34;;;;;;;11.48;5.70;;;;;;;18.81;52.84;101531.59;5063093;28;20049;-68
2022/06/02 06:13:13;;;;;;;11.18;6.38;;;;;;;19.15;50.70;101530.81;5062121;28;20109;-68
2022/06/02 06:15:49;;;;;;;8.07;5.47;;;;;;;18.44;52.19;101531.59;5054193;28;20071;-68
2022/06/02 06:18:27;;;;;;;8.55;5.40;;;;;;;18.91;51.86;101532.63;5053931;28;20495;-68
2022/06/02 06:21:08;;;;;;;7.35;5.15;;;;;;;18.88;51.76;101546.97;5061907;28;20090;-68
2022/06/02 06:24:04;;;;;;;6.75;5.63;;;;;;;19.50;51.89;101540.63;5055205;28;20048;-68
2022/06/02 06:26:43;;;;;;;7.38;5.68;;;;;;;20.10;50.08;101537.69;5051611;28;20094;-68
2022/06/02 06:29:25;;;;;;;9.15;5.28;;;;;;;20.24;49.76;101548.09;5058474;28;20049;-68
2022/06/02 06:32:02;;;;;;;7.90;5.60;;;;;;;20.24;47.90;101540.09;5057685;28;20044;-68
2022/06/02 06:34:38;;;;;;;7.38;5.28;;;;;;;20.17;48.66;101542.41;5066889;28;20041;-68
2022/06/02 06:37:28;;;;;;;6.57;5.43;;;;;;;20.56;47.29;101540.22;5057502;28;20049;-68
2022/06/02 06:40:07;;;;;;;7.35;5.07;;;;;;;20.68;46.60;101549.88;5053525;28;20475;-68
2022/06/02 06:42:54;;;;;;;8.38;4.95;;;;;;;20.43;48.08;101555.50;5060499;28;20060;-68
2022/06/02 06:45:29;;;;;;;5.47;4.13;;;;;;;20.95;45.01;101555.63;5045894;28;20460;-68
2022/06/02 06:48:00;;;;;;;8.43;4.10;;;;;;;20.88;44.90;101565.94;5056434;28;20276;-68
2022/06/02 06:50:36;;;;;;;6.75;4.80;;;;;;;20.68;44.99;101563.22;5048346;28;20095;-68
2022/06/02 06:53:20;;;;;;;6.28;4.03;;;;;;;20.95;45.81;101563.63;5053122;28;20041;-68
2022/06/02 06:56:04;;;;;;;7.90;3.80;;;;;;;20.12;45.47;101557.91;5047021;28;20095;-68
2022/06/02 06:58:43;;;;;;;4.22;3.00;;;;;;;19.91;46.99;101564.91;5066356;28;20048;-68
2022/06/02 07:01:15;;;;;;;8.27;3.72;;;;;;;19.79;45.70;101568.50;5065456;28;20405;-68
2022/06/02 07:04:01;;;;;;;7.95;4.20;;;;;;;19.61;47.83;101564.59;5048366;28;20099;-68
2022/06/02 07:06:38;;;;;;;5.68;3.80;;;;;;;19.31;49.18;101573.91;5048615;28;20488;-68
2022/06/02 07:09:17;;;;;;;5.68;4.30;;;;;;;19.99;49.50;101572.28;5046113;28;20544;-68
2022/06/02 07:14:46;;;;;;;5.47;3.78;;;;;;;21.34;44.50;101568.34;5061531;28;20125;-68
2022/06/02 07:17:20;;;;;;;6.88;3.72;;;;;;;21.76;44.56;101563.88;5051669;28;20048;-68
2022/06/02 07:19:56;;;;;;;6.65;3.92;;;;;;;21.68;44.49;101576.19;5057263;28;20046;-69
2022/06/02 07:22:28;;;;;;;6.82;3.80;;;;;;;21.99;45.07;101566.44;5052567;28;20040;-69
2022/06/02 07:25:05;;;;;;;6.13;3.60;;;;;;;22.32;44.04;101572.31;5056042;28;20056;-69
2022/06/02 07:27:38;;;;;;;4.82;3.67;;;;;;;22.38;42.31;101576.31;5055832;28;20094;-69
2022/06/02 07:30:21;;;;;;;5.07;3.33;;;;;;;22.62;41.35;101579.47;5058968;28;20416;-68
2022/06/02 07:33:05;;;;;;;6.57;3.42;;;;;;;22.41;43.45;101575.19;5065851;28;20045;-67
2022/06/02 07:36:01;;;;;;;4.40;2.80;;;;;;;22.97;40.70;101583.53;5066186;28;20040;-67
2022/06/02 07:38:43;;;;;;;6.55;3.20;;;;;;;22.98;40.35;101578.03;5059629;28;20045;-67
2022/06/02 07:41:32;;;;;;;4.63;3.30;;;;;;;23.24;42.30;101579.16;5044088;28;20579;-67
2022/06/02 07:44:17;;;;;;;7.45;3.75;;;;;;;22.55;41.21;101580.16;5045708;28;20098;-67
2022/06/02 07:47:00;;;;;;;10.68;3.50;;;;;;;21.49;41.47;101579.56;5044615;28;20094;-67
2022/06/02 07:49:42;;;;;;;4.90;3.15;;;;;;;20.94;41.75;101593.06;5055690;28;20044;-67
2022/06/02 07:52:18;;;;;;;7.72;3.50;;;;;;;20.47;42.90;101596.91;5061883;28;20041;-67
2022/06/02 07:54:55;;;;;;;6.65;3.78;;;;;;;20.72;45.81;101591.31;5055081;28;20044;-67
2022/06/02 07:57:34;;;;;;;5.10;3.78;;;;;;;21.11;44.11;101588.09;5064112;28;20036;-68
2022/06/02 08:00:14;;;;;;;7.43;3.15;;;;;;;22.06;42.72;101592.44;5056625;28;20045;-68
2022/06/02 08:02:52;;;;;;;5.35;3.03;;;;;;;22.84;42.04;101599.00;5045529;28;20045;-68
2022/06/02 08:05:37;;;;;;;6.60;3.35;;;;;;;23.26;40.73;101601.28;5048423;28;20094;-68
2022/06/02 08:08:13;;;;;;;6.25;3.60;;;;;;;22.95;40.16;101602.38;5054257;28;20048;-68
2022/06/02 08:10:52;;;;;;;8.00;3.45;;;;;;;22.72;40.31;101595.59;5050671;28;20095;-68
2022/06/02 08:13:30;;;;;;;8.70;3.60;;;;;;;22.08;41.00;101595.84;5059795;28;20060;-68
2022/06/02 08:16:01;;;;;;;5.88;3.60;;;;;;;21.88;40.65;101594.00;5046074;28;20041;-68
2022/06/02 08:18:45;;;;;;;7.57;3.83;;;;;;;21.65;42.25;101604.00;5056229;28;20057;-68
2022/06/02 08:21:21;;;;;;;6.80;4.30;;;;;;;22.26;42.48;101610.28;5065513;28;20105;-68
2022/06/02 08:24:04;;;;;;;5.65;3.85;;;;;;;22.43;39.19;101608.78;5052765;28;20106;-68
2022/06/02 08:26:39;;;;;;;5.03;3.80;;;;;;;21.93;40.81;101601.66;5045656;28;20482;-68
2022/06/02 08:29:23;;;;;;;5.97;3.80;;;;;;;21.38;40.88;101606.28;5045036;28;20053;-69
2022/06/02 08:32:11;;;;;;;5.55;4.10;;;;;;;21.23;41.58;101605.75;5043611;28;20049;-69
2022/06/02 08:34:48;;;;;;;7.20;4.47;;;;;;;22.17;42.68;101605.72;5053373;28;20075;-68
2022/06/02 08:37:21;;;;;;;4.90;3.85;;;;;;;22.97;41.80;101605.78;5048983;28;20126;-68
2022/06/02 08:39:59;;;;;;;7.35;4.00;;;;;;;22.90;38.83;101603.78;5041741;28;20414;-68
2022/06/02 08:42:49;;;;;;;5.00;3.80;;;;;;;22.42;38.98;101614.28;5044586;28;20422;-68
2022/06/02 08:45:43;;;;;;;7.35;3.65;;;;;;;21.13;39.65;101618.16;5059116;28;20217;-68
2022/06/02 08:48:42;;;;;;;4.22;3.33;;;;;;;21.05;40.55;101620.56;5059728;28;20045;-68
2022/06/02 08:51:47;;;;;;;5.00;3.42;;;;;;;21.89;41.45;101613.53;5063947;28;20048;-68
2022/06/02 08:54:58;;;;;;;5.05;3.78;;;;;;;22.40;40.55;101608.22;5052746;28;20516;-68
2022/06/02 08:57:55;;;;;;;4.63;3.50;;;;;;;22.45;38.93;101616.69;5045464;28;20698;-68
2022/06/02 09:00:38;;;;;;;7.15;3.20;;;;;;;21.60;38.85;101622.22;5046415;28;20123;-68
2022/06/02 09:03:29;;;;;;;4.55;2.83;;;;;;;22.23;39.76;101620.38;5043126;28;20074;-68
2022/06/02 09:06:23;;;;;;;5.30;3.00;;;;;;;23.22;40.96;101623.97;5048824;28;20119;-68
2022/06/02 09:09:14;;;;;;;4.47;2.78;;;;;;;24.03;36.45;101613.78;5062527;28;20066;-68
2022/06/02 09:11:53;;;;;;;7.65;3.55;;;;;;;24.56;36.79;101608.69;5050609;28;20107;-68
2022/06/02 09:14:58;;;;;;;5.20;3.00;;;;;;;24.50;34.74;101620.00;5045208;28;20123;-68
2022/06/02 09:17:36;;;;;;;7.38;2.95;;;;;;;24.10;35.20;101615.72;5044799;28;20040;-68
2022/06/02 09:20:13;;;;;;;6.30;2.42;;;;;;;24.37;35.21;101620.34;5045286;28;20057;-68
2022/06/02 09:22:54;;;;;;;4.03;2.70;;;;;;;25.07;35.15;101624.22;5047578;28;20080;-68
2022/06/02 09:25:41;;;;;;;5.80;2.42;;;;;;;25.19;33.97;101623.03;5046429;28;20049;-68
2022/06/02 09:28:25;;;;;;;6.70;2.60;;;;;;;23.28;34.62;101642.13;5042772;28;20049;-68
2022/06/02 09:31:06;;;;;;;3.67;2.80;;;;;;;22.79;36.35;101635.00;5043647;28;20102;-68
2022/06/02 09:33:56;;;;;;;4.47;2.75;;;;;;;23.31;36.52;101640.16;5043644;28;20746;-68
2022/06/02 09:36:46;;;;;;;4.85;2.83;;;;;;;23.36;36.28;101649.44;5044786;28;20114;-68
2022/06/02 09:39:33;;;;;;;3.83;2.70;;;;;;;23.56;34.56;101642.31;5042892;28;20128;-68
2022/06/02 09:42:17;;;;;;;6.00;3.03;;;;;;;23.43;35.11;101647.13;5044150;28;20065;-68
2022/06/02 09:44:54;;;;;;;3.80;2.13;;;;;;;23.05;33.63;101651.41;5043783;28;20555;-68
2022/06/02 09:47:42;;;;;;;7.65;1.98;;;;;;;23.28;29.83;101647.47;5042188;28;20647;-68
2022/06/02 09:50:29;;;;;;;3.65;2.05;;;;;;;23.40;34.51;101652.69;5056022;28;20040;-68
2022/06/02 09:53:22;;;;;;;3.40;2.08;;;;;;;24.34;32.51;101644.75;5051792;28;20101;-68
2022/06/02 09:56:04;;;;;;;4.38;2.53;;;;;;;24.62;33.50;101640.25;5067809;28;20139;-68
2022/06/02 09:58:55;;;;;;;4.68;2.28;;;;;;;25.31;34.77;101643.28;5061607;28;20048;-68
2022/06/02 10:01:33;;;;;;;4.28;2.00;;;;;;;25.41;30.71;101637.81;5046813;28;20049;-68
2022/06/02 10:04:34;;;;;;;4.28;2.15;;;;;;;25.03;30.10;101634.41;5057953;28;20048;-68
2022/06/02 10:07:25;;;;;;;2.72;1.75;;;;;;;25.54;30.50;101638.31;5058487;28;20058;-68
2022/06/02 10:10:26;;;;;;;4.05;2.40;;;;;;;25.38;31.06;101648.88;5066434;28;20048;-67
2022/06/02 10:13:09;;;;;;;3.65;2.00;;;;;;;25.08;28.84;101640.19;5066277;28;20044;-67
2022/06/02 10:15:54;;;;;;;3.25;2.47;;;;;;;24.65;30.73;101650.69;5068001;28;20108;-67
2022/06/02 10:18:58;;;;;;;3.80;2.63;;;;;;;24.20;31.88;101648.72;5068243;28;20060;-67
2022/06/02 10:21:43;;;;;;;4.22;3.10;;;;;;;24.32;34.09;101651.22;5047593;28;20410;-67
2022/06/02 10:24:26;;;;;;;3.40;2.70;;;;;;;24.06;33.18;101646.47;5054456;28;20044;-67
2022/06/02 10:27:13;;;;;;;6.07;2.70;;;;;;;24.54;37.18;101658.91;5045547;28;20116;-67
2022/06/02 10:30:14;;;;;;;7.40;2.38;;;;;;;24.50;33.59;101657.56;5046593;28;20040;-67
2022/06/02 10:33:04;;;;;;;3.22;2.45;;;;;;;24.03;32.04;101652.13;5047556;28;20095;-67
2022/06/02 10:36:05;;;;;;;3.78;2.38;;;;;;;23.95;32.15;101657.34;5045746;28;20509;-67
2022/06/02 10:38:41;;;;;;;4.88;2.22;;;;;;;24.43;31.51;101651.06;5046167;28;20037;-67
2022/06/02 10:41:29;;;;;;;4.22;2.22;;;;;;;24.49;32.08;101645.97;5046965;28;20107;-67
2022/06/02 10:44:11;;;;;;;3.75;2.38;;;;;;;23.63;33.18;101649.66;5047819;28;20111;-66
2022/06/02 10:47:17;;;;;;;3.17;2.22;;;;;;;23.96;32.07;101648.34;5048558;28;20052;-66
2022/06/02 10:49:54;;;;;;;6.50;2.75;;;;;;;24.03;33.38;101645.94;5045524;28;20045;-67
2022/06/02 10:52:48;;;;;;;3.25;2.28;;;;;;;24.16;34.22;101658.06;5054197;28;20054;-67
2022/06/02 10:55:38;;;;;;;4.93;2.83;;;;;;;23.47;30.76;101651.19;5060293;28;20064;-67
2022/06/02 10:58:33;;;;;;;3.10;2.22;;;;;;;23.85;32.56;101658.38;5066844;28;20055;-67
2022/06/02 11:01:36;;;;;;;4.03;1.88;;;;;;;24.58;32.42;101646.91;5065575;28;20105;-66
2022/06/02 11:04:47;;;;;;;3.78;2.20;;;;;;;24.99;32.49;101642.91;5065906;28;20497;-66
2022/06/02 11:07:46;;;;;;;4.32;1.98;;;;;;;25.24;30.21;101642.16;5062465;28;20052;-66
2022/06/02 11:10:29;;;;;;;5.70;2.42;;;;;;;25.38;30.37;101643.50;5066333;28;20132;-67
2022/06/02 11:13:28;;;;;;;4.97;2.03;;;;;;;25.52;34.35;101641.16;5067090;28;20090;-67
2022/06/02 11:16:26;;;;;;;3.90;1.88;;;;;;;25.37;30.61;101641.81;5065488;28;20467;-67
2022/06/02 11:19:26;;;;;;;3.30;2.00;;;;;;;26.24;29.63;101642.72;5064250;28;20060;-66
2022/06/02 11:22:17;;;;;;;4.63;1.90;;;;;;;26.36;29.68;101635.22;5060317;28;20048;-66
2022/06/02 11:25:16;;;;;;;5.88;2.00;;;;;;;26.26;29.32;101642.56;5058880;28;20074;-67
2022/06/02 11:28:19;;;;;;;3.50;2.03;;;;;;;25.76;29.02;101640.50;5064868;28;20513;-66
2022/06/02 11:31:21;;;;;;;3.63;2.10;;;;;;;24.54;30.25;101641.00;5065269;28;20558;-66
2022/06/02 11:34:09;;;;;;;2.20;1.53;;;;;;;24.21;31.90;101642.38;5055739;28;20053;-66
2022/06/02 11:37:00;;;;;;;4.63;2.08;;;;;;;23.75;33.51;101653.03;5045280;28;20970;-67
2022/06/02 11:39:42;;;;;;;2.92;1.80;;;;;;;23.53;34.51;101654.16;5043928;28;20036;-67
2022/06/02 11:42:25;;;;;;;4.35;2.00;;;;;;;24.13;34.43;101638.72;5045494;28;20107;-67
2022/06/02 11:45:02;;;;;;;6.60;2.20;;;;;;;24.51;33.08;101640.44;5045087;28;20045;-67
2022/06/02 11:47:52;;;;;;;4.53;2.45;;;;;;;24.41;31.94;101639.66;5059154;28;20440;-67
2022/06/02 11:50:37;;;;;;;3.90;2.58;;;;;;;23.53;33.07;101645.28;5059297;28;20057;-67
2022/06/02 11:53:43;;;;;;;3.22;2.30;;;;;;;23.03;33.65;101644.47;5045257;28;20041;-67
2022/06/02 11:56:14;;;;;;;5.85;2.10;;;;;;;23.21;34.28;101649.03;5038565;28;20037;-67
2022/06/02 11:59:05;;;;;;;5.23;1.93;;;;;;;22.87;33.42;101636.16;5046568;28;20045;-67
2022/06/02 12:01:48;;;;;;;3.88;2.20;;;;;;;23.17;33.95;101652.94;5043211;28;20283;-67
2022/06/02 12:04:46;;;;;;;;;;;;;;;23.26;35.80;101645.94;5049177;28;20037;-67
2022/06/02 12:07:43;;;;;;;3.88;2.50;;;;;;;23.44;33.97;101640.75;5055816;28;19969;-67
2022/06/02 12:10:38;;;;;;;4.00;2.58;;;;;;;24.03;32.62;101635.22;5065006;28;20529;-67
2022/06/02 12:13:18;;;;;;;4.22;2.58;;;;;;;23.76;33.61;101646.69;5062749;28;20106;-67
2022/06/02 12:16:13;;;;;;;6.05;2.72;;;;;;;23.18;32.46;101638.59;5065879;28;20040;-67
2022/06/02 12:18:52;;;;;;;4.60;2.70;;;;;;;22.85;33.44;101636.28;5064696;28;20510;-67
2022/06/02 12:21:45;;;;;;;6.20;2.97;;;;;;;23.91;34.57;101631.84;5053690;28;20052;-67
2022/06/02 12:24:31;;;;;;;6.03;2.67;;;;;;;24.69;32.14;101627.94;5054274;28;20456;-67
2022/06/02 12:27:14;;;;;;;4.72;2.40;;;;;;;25.57;30.81;101625.41;5045267;28;20508;-67
2022/06/02 12:29:58;;;;;;;4.93;2.63;;;;;;;26.00;30.41;101632.66;5043684;28;20037;-67
2022/06/02 12:32:39;;;;;;;6.45;3.08;;;;;;;25.71;30.94;101629.41;5044667;28;20094;-67
2022/06/02 12:35:21;;;;;;;4.88;2.58;;;;;;;25.11;32.20;101639.03;5049505;28;20106;-67
2022/06/02 12:38:08;;;;;;;5.03;3.28;;;;;;;24.85;31.89;101636.22;5057280;28;20492;-66
2022/06/02 12:40:41;;;;;;;3.83;2.78;;;;;;;25.25;31.16;101635.81;5053939;28;20045;-66
2022/06/02 12:43:41;;;;;;;6.53;2.42;;;;;;;25.80;30.47;101631.13;5047934;28;20323;-66
2022/06/02 12:46:30;;;;;;;2.90;2.30;;;;;;;25.33;30.19;101625.16;5042089;28;20049;-67
2022/06/02 12:49:20;;;;;;;5.70;3.33;;;;;;;24.89;30.48;101636.78;5056514;28;20044;-67